createdAt,value
2022-12-18T00:01:25.727Z,9.40
2022-12-18T00:03:53.871Z,10.00
2022-12-18T00:06:21.354Z,10.05
2022-12-18T00:08:47.951Z,9.65
2022-12-18T00:11:22.311Z,10.05
2022-12-18T00:13:49.432Z,10.05
2022-12-18T00:16:21.659Z,10.38
2022-12-18T00:18:53.100Z,10.65
2022-12-18T00:21:20.810Z,9.15
2022-12-18T00:23:49.123Z,10.43
2022-12-18T00:26:19.304Z,10.35
2022-12-18T00:28:46.864Z,8.27
2022-12-18T00:31:17.055Z,9.25
2022-12-18T00:33:44.340Z,9.30
2022-12-18T00:36:13.517Z,9.27
2022-12-18T00:38:40.204Z,9.15
2022-12-18T00:41:08.199Z,8.60
2022-12-18T00:43:37.563Z,7.95
2022-12-18T00:46:04.974Z,9.40
2022-12-18T00:48:32.238Z,8.48
2022-12-18T00:50:58.776Z,8.13
2022-12-18T00:53:25.347Z,7.78
2022-12-18T00:55:51.810Z,8.88
2022-12-18T00:58:18.351Z,8.77
2022-12-18T01:00:44.936Z,8.70
2022-12-18T01:03:14.986Z,9.10
2022-12-18T01:05:43.935Z,10.07
2022-12-18T01:08:11.657Z,8.32
2022-12-18T01:10:41.823Z,9.68
2022-12-18T01:13:08.303Z,9.18
2022-12-18T01:15:34.820Z,9.57
2022-12-18T01:18:01.296Z,9.05
2022-12-18T01:20:27.746Z,8.68
2022-12-18T01:22:54.202Z,9.63
2022-12-18T01:25:20.620Z,9.57
2022-12-18T01:27:47.053Z,9.98
2022-12-18T01:30:13.645Z,8.60
2022-12-18T01:32:40.218Z,11.05
2022-12-18T01:35:07.763Z,9.13
2022-12-18T01:37:34.376Z,9.75
2022-12-18T01:40:00.909Z,10.68
2022-12-18T01:42:27.410Z,9.73
2022-12-18T01:45:12.154Z,9.50
2022-12-18T01:47:53.350Z,9.80
2022-12-18T01:50:31.790Z,10.48
2022-12-18T01:53:07.117Z,9.75
2022-12-18T01:55:56.575Z,9.80
2022-12-18T01:58:46.414Z,10.15
2022-12-18T02:01:13.109Z,8.77
2022-12-18T02:03:42.682Z,10.27
2022-12-18T02:06:09.261Z,9.75
2022-12-18T02:08:52.067Z,9.63
2022-12-18T02:11:40.581Z,10.80
2022-12-18T02:14:35.774Z,9.88
2022-12-18T02:17:24.189Z,9.35
2022-12-18T02:20:20.871Z,10.35
2022-12-18T02:23:15.181Z,10.68
2022-12-18T02:26:03.208Z,10.27
2022-12-18T02:28:34.340Z,10.65
2022-12-18T02:31:07.432Z,10.20
2022-12-18T02:33:37.102Z,10.02
2022-12-18T02:36:05.323Z,10.07
2022-12-18T02:38:34.741Z,10.27
2022-12-18T02:43:36.770Z,10.45
2022-12-18T02:46:29.682Z,10.32
2022-12-18T02:49:05.752Z,11.20
2022-12-18T02:51:44.694Z,10.70
2022-12-18T02:54:32.878Z,9.57
2022-12-18T02:57:10.898Z,9.65
2022-12-18T02:59:50.370Z,11.75
2022-12-18T03:02:27.342Z,10.02
2022-12-18T03:05:05.469Z,11.60
2022-12-18T03:07:40.137Z,10.68
2022-12-18T03:10:15.144Z,11.98
2022-12-18T03:12:52.267Z,10.73
2022-12-18T03:15:50.506Z,11.13
2022-12-18T03:18:25.918Z,10.30
2022-12-18T03:20:56.812Z,10.20
2022-12-18T03:23:26.927Z,10.35
2022-12-18T03:26:05.817Z,10.10
2022-12-18T03:28:43.157Z,11.45
2022-12-18T03:31:14.797Z,10.65
2022-12-18T03:33:53.337Z,10.93
2022-12-18T03:36:24.657Z,11.00
2022-12-18T03:38:52.193Z,10.45
2022-12-18T03:41:30.149Z,11.43
2022-12-18T03:44:41.178Z,9.45
2022-12-18T03:47:26.551Z,10.90
2022-12-18T03:50:12.513Z,10.93
2022-12-18T03:52:49.218Z,11.07
2022-12-18T03:55:17.931Z,9.82
2022-12-18T03:57:49.143Z,10.05
2022-12-18T04:00:19.418Z,11.55
2022-12-18T04:02:57.767Z,11.35
2022-12-18T04:05:35.420Z,11.45
2022-12-18T04:08:02.877Z,11.48
2022-12-18T04:10:31.070Z,12.18
2022-12-18T04:12:59.559Z,12.27
2022-12-18T04:15:26.677Z,12.23
2022-12-18T04:17:53.215Z,11.90
2022-12-18T04:20:23.240Z,12.35
2022-12-18T04:22:50.235Z,11.75
2022-12-18T04:25:19.307Z,12.45
2022-12-18T04:30:33.825Z,11.82
2022-12-18T04:33:00.473Z,11.27
2022-12-18T04:35:28.071Z,12.02
2022-12-18T04:37:54.903Z,10.50
2022-12-18T04:40:21.415Z,12.77
2022-12-18T04:42:48.890Z,12.82
2022-12-18T04:45:15.498Z,13.32
2022-12-18T04:47:41.999Z,12.20
2022-12-18T04:50:08.664Z,13.18
2022-12-18T04:52:35.110Z,12.98
2022-12-18T04:55:01.582Z,12.82
2022-12-18T04:57:28.090Z,12.93
2022-12-18T04:59:54.538Z,13.13
2022-12-18T05:02:21.183Z,11.00
2022-12-18T05:04:47.638Z,13.07
2022-12-18T05:07:14.053Z,13.55
2022-12-18T05:09:40.534Z,12.18
2022-12-18T05:12:08.217Z,13.82
2022-12-18T05:14:34.640Z,12.55
2022-12-18T05:17:01.403Z,13.02
2022-12-18T05:19:27.934Z,12.05
2022-12-18T05:21:54.343Z,13.60
2022-12-18T05:24:20.853Z,13.10
2022-12-18T05:26:47.325Z,14.05
2022-12-18T05:29:13.994Z,13.75
2022-12-18T05:31:41.227Z,13.35
2022-12-18T05:34:09.518Z,11.95
2022-12-18T05:36:37.119Z,12.95
2022-12-18T05:39:03.858Z,14.70
2022-12-18T05:41:30.878Z,15.55
2022-12-18T05:43:57.442Z,14.18
2022-12-18T05:46:25.234Z,13.07
2022-12-18T05:48:52.020Z,14.13
2022-12-18T05:51:21.224Z,14.27
2022-12-18T05:53:47.878Z,12.45
2022-12-18T05:56:17.290Z,13.10
2022-12-18T05:58:44.186Z,14.85
2022-12-18T06:01:19.675Z,14.00
2022-12-18T06:03:47.025Z,13.17
2022-12-18T06:06:19.853Z,14.43
2022-12-18T06:08:47.089Z,14.77
2022-12-18T06:11:16.679Z,13.23
2022-12-18T06:13:43.195Z,15.52
2022-12-18T06:16:09.695Z,15.35
2022-12-18T06:18:39.433Z,13.77
2022-12-18T06:21:06.214Z,13.25
2022-12-18T06:23:32.647Z,14.63
2022-12-18T06:25:59.116Z,13.45
2022-12-18T06:28:25.539Z,12.98
2022-12-18T06:30:52.023Z,14.90
2022-12-18T06:33:18.664Z,13.30
2022-12-18T06:35:45.083Z,13.63
2022-12-18T06:38:11.618Z,14.40
2022-12-18T06:40:40.223Z,14.15
2022-12-18T06:43:07.190Z,14.25
2022-12-18T06:45:33.880Z,13.70
2022-12-18T06:48:00.380Z,14.73
2022-12-18T06:50:27.025Z,15.77
2022-12-18T06:52:53.521Z,15.35
2022-12-18T06:55:19.988Z,14.65
2022-12-18T06:57:46.459Z,13.60
2022-12-18T07:00:13.497Z,14.02
2022-12-18T07:02:40.400Z,15.30
2022-12-18T07:05:10.688Z,16.17
2022-12-18T07:07:37.868Z,14.57
2022-12-18T07:10:05.010Z,16.48
2022-12-18T07:12:31.554Z,14.85
2022-12-18T07:14:58.050Z,14.73
2022-12-18T07:17:24.506Z,15.40
2022-12-18T07:19:50.934Z,14.20
2022-12-18T07:22:17.353Z,12.82
2022-12-18T07:24:43.823Z,15.27
2022-12-18T07:27:10.277Z,14.55
2022-12-18T07:29:36.866Z,14.57
2022-12-18T07:32:04.621Z,13.98
2022-12-18T07:34:31.091Z,14.05
2022-12-18T07:36:57.526Z,14.73
2022-12-18T07:39:23.955Z,14.05
2022-12-18T07:42:10.603Z,14.70
2022-12-18T07:44:40.069Z,14.30
2022-12-18T07:47:10.501Z,14.98
2022-12-18T07:49:38.678Z,14.35
2022-12-18T07:52:05.300Z,14.73
2022-12-18T07:54:31.724Z,14.38
2022-12-18T07:56:58.465Z,14.90
2022-12-18T07:59:25.218Z,15.23
2022-12-18T08:01:51.719Z,14.95
2022-12-18T08:04:18.387Z,14.30
2022-12-18T08:06:47.723Z,14.52
2022-12-18T08:09:14.971Z,15.02
2022-12-18T08:11:41.388Z,13.90
2022-12-18T08:14:07.933Z,14.88
2022-12-18T08:16:34.440Z,14.25
2022-12-18T08:19:01.173Z,15.57
2022-12-18T08:21:30.284Z,13.40
2022-12-18T08:23:59.150Z,13.88
2022-12-18T08:26:27.985Z,14.88
2022-12-18T08:28:56.767Z,13.68
2022-12-18T08:31:23.863Z,14.85
2022-12-18T08:33:53.135Z,13.73
2022-12-18T08:36:20.973Z,13.40
2022-12-18T08:38:47.977Z,15.38
2022-12-18T08:41:16.933Z,13.77
2022-12-18T08:44:02.158Z,13.80
2022-12-18T08:46:33.867Z,14.90
2022-12-18T08:49:00.421Z,13.90
2022-12-18T08:51:27.418Z,13.73
2022-12-18T08:53:53.838Z,14.10
2022-12-18T08:56:20.253Z,13.15
2022-12-18T08:58:46.883Z,15.48
2022-12-18T09:01:14.449Z,13.52
2022-12-18T09:03:41.732Z,14.07
2022-12-18T09:06:08.513Z,14.95
2022-12-18T09:08:34.947Z,14.70
2022-12-18T09:11:01.377Z,14.02
2022-12-18T09:13:27.967Z,13.85
2022-12-18T09:15:55.395Z,16.73
2022-12-18T09:18:24.180Z,14.27
2022-12-18T09:20:52.692Z,15.15
2022-12-18T09:23:19.469Z,14.00
2022-12-18T09:25:45.878Z,14.13
2022-12-18T09:28:15.424Z,14.13
2022-12-18T09:30:44.320Z,15.13
2022-12-18T09:33:11.124Z,13.57
2022-12-18T09:35:39.931Z,13.07
2022-12-18T09:38:07.383Z,14.13
2022-12-18T09:40:37.261Z,13.45
2022-12-18T09:43:07.400Z,14.65
2022-12-18T09:45:45.596Z,13.95
2022-12-18T09:48:20.864Z,13.98
2022-12-18T09:50:48.044Z,14.80
2022-12-18T09:53:21.475Z,16.23
2022-12-18T09:55:49.404Z,14.32
2022-12-18T09:58:27.753Z,15.00
2022-12-18T10:00:55.622Z,15.25
2022-12-18T10:03:22.732Z,13.85
2022-12-18T10:06:14.562Z,13.82
2022-12-18T10:08:56.357Z,14.65
2022-12-18T10:11:39.996Z,14.48
2022-12-18T10:14:25.137Z,14.85
2022-12-18T10:17:04.546Z,13.93
2022-12-18T10:19:57.249Z,15.52
2022-12-18T10:22:48.323Z,16.38
2022-12-18T10:25:21.001Z,15.55
2022-12-18T10:27:48.531Z,15.57
2022-12-18T10:30:21.984Z,16.25
2022-12-18T10:32:48.465Z,15.88
2022-12-18T10:35:26.207Z,15.73
2022-12-18T10:38:17.540Z,14.57
2022-12-18T10:41:02.191Z,15.27
2022-12-18T10:43:37.306Z,15.55
2022-12-18T10:46:09.946Z,14.35
2022-12-18T10:48:48.462Z,14.25
2022-12-18T10:51:41.360Z,15.63
2022-12-18T10:54:16.637Z,15.23
2022-12-18T10:56:43.737Z,15.43
2022-12-18T10:59:14.409Z,13.00
2022-12-18T11:01:57.144Z,15.48
2022-12-18T11:04:31.913Z,15.10
2022-12-18T11:06:59.875Z,15.35
2022-12-18T11:09:33.148Z,15.68
2022-12-18T11:12:02.656Z,15.95
2022-12-18T11:14:33.164Z,15.82
2022-12-18T11:19:57.786Z,14.57
2022-12-18T11:22:33.114Z,15.82
2022-12-18T11:25:32.705Z,16.17
2022-12-18T11:28:00.981Z,14.73
2022-12-18T11:30:28.415Z,15.02
2022-12-18T11:33:03.936Z,14.65
2022-12-18T11:35:45.917Z,16.45
2022-12-18T11:38:21.408Z,14.45
2022-12-18T11:40:55.116Z,15.18
2022-12-18T11:43:29.458Z,14.43
2022-12-18T11:46:03.596Z,14.68
2022-12-18T11:48:46.262Z,15.73
2022-12-18T11:51:27.146Z,15.85
2022-12-18T11:53:53.819Z,16.52
2022-12-18T11:56:47.061Z,15.68
2022-12-18T11:59:37.684Z,14.77
2022-12-18T12:02:16.534Z,15.57
2022-12-18T12:05:18.504Z,15.52
2022-12-18T12:07:56.890Z,15.45
2022-12-18T12:11:08.335Z,14.45
2022-12-18T12:13:45.047Z,15.02
2022-12-18T12:16:19.441Z,14.65
2022-12-18T12:18:53.030Z,16.52
2022-12-18T12:21:28.743Z,15.90
2022-12-18T12:24:11.380Z,15.50
2022-12-18T12:26:57.675Z,15.52
2022-12-18T12:30:05.492Z,15.27
2022-12-18T12:32:48.603Z,15.02
2022-12-18T12:35:24.190Z,14.30
2022-12-18T12:38:05.619Z,15.50
2022-12-18T12:40:58.559Z,15.27
2022-12-18T12:43:50.670Z,16.15
2022-12-18T12:46:22.211Z,15.27
2022-12-18T12:49:00.598Z,16.10
2022-12-18T12:51:35.530Z,15.27
2022-12-18T12:54:06.372Z,14.88
2022-12-18T12:56:58.766Z,14.43
2022-12-18T12:59:59.370Z,14.88
2022-12-18T13:02:55.020Z,14.65
2022-12-18T13:05:40.017Z,15.95
2022-12-18T13:08:22.679Z,14.65
2022-12-18T13:11:10.805Z,14.98
2022-12-18T13:13:57.469Z,15.65
2022-12-18T13:16:26.318Z,13.20
2022-12-18T13:18:55.299Z,16.02
2022-12-18T13:21:28.005Z,15.00
2022-12-18T13:23:56.604Z,15.18
2022-12-18T13:26:28.738Z,14.95
2022-12-18T13:28:57.217Z,14.25
2022-12-18T13:31:41.700Z,14.73
2022-12-18T13:37:40.650Z,14.40
2022-12-18T13:40:45.716Z,15.43
2022-12-18T13:43:21.806Z,14.80
2022-12-18T13:45:55.302Z,14.35
2022-12-18T13:48:25.291Z,14.40
2022-12-18T13:51:03.060Z,15.05
2022-12-18T13:53:50.747Z,16.27
2022-12-18T13:56:19.232Z,14.45
2022-12-18T13:59:03.708Z,14.43
2022-12-18T14:01:30.301Z,14.25
2022-12-18T14:04:36.459Z,15.40
2022-12-18T14:07:06.602Z,15.23
2022-12-18T14:09:40.692Z,15.75
2022-12-18T14:12:31.793Z,15.60
2022-12-18T14:15:01.091Z,14.27
2022-12-18T14:17:27.810Z,15.23
2022-12-18T14:19:54.991Z,13.82
2022-12-18T14:22:30.294Z,15.95
2022-12-18T14:25:20.692Z,15.40
2022-12-18T14:28:12.845Z,16.30
2022-12-18T14:30:41.981Z,15.70
2022-12-18T14:33:11.290Z,15.65
2022-12-18T14:35:52.688Z,14.95
2022-12-18T14:38:52.565Z,13.95
2022-12-18T14:41:20.551Z,15.65
2022-12-18T14:43:49.300Z,14.98
2022-12-18T14:46:31.011Z,14.65
2022-12-18T14:48:58.466Z,13.77
2022-12-18T14:51:30.817Z,14.05
2022-12-18T14:53:59.206Z,13.93
2022-12-18T14:56:29.065Z,15.18
2022-12-18T14:59:04.447Z,15.80
2022-12-18T15:01:35.386Z,15.32
2022-12-18T15:04:03.207Z,13.65
2022-12-18T15:06:38.394Z,14.98
2022-12-18T15:09:22.850Z,14.23
2022-12-18T15:11:49.675Z,13.95
2022-12-18T15:14:31.351Z,14.40
2022-12-18T15:16:59.906Z,14.02
2022-12-18T15:19:38.225Z,13.88
2022-12-18T15:22:06.782Z,12.95
2022-12-18T15:24:33.902Z,14.77
2022-12-18T15:27:01.394Z,14.93
2022-12-18T15:29:28.384Z,13.82
2022-12-18T15:32:06.721Z,13.90
2022-12-18T15:34:35.044Z,14.48
2022-12-18T15:37:01.595Z,14.10
2022-12-18T15:39:28.042Z,15.05
2022-12-18T15:42:13.386Z,13.23
2022-12-18T15:44:39.980Z,14.18
2022-12-18T15:47:12.608Z,13.75
2022-12-18T15:49:39.089Z,13.27
2022-12-18T15:52:06.719Z,13.82
2022-12-18T15:55:08.588Z,14.35
2022-12-18T15:57:35.012Z,16.52
2022-12-18T16:00:01.637Z,14.45
2022-12-18T16:02:29.505Z,14.02
2022-12-18T16:04:56.258Z,13.60
2022-12-18T16:07:24.979Z,15.55
2022-12-18T16:09:52.695Z,14.68
2022-12-18T16:12:22.889Z,14.95
2022-12-18T16:14:49.391Z,13.80
2022-12-18T16:17:16.757Z,14.40
2022-12-18T16:19:45.210Z,14.65
2022-12-18T16:22:22.978Z,13.25
2022-12-18T16:24:51.002Z,14.02
2022-12-18T16:27:17.799Z,13.88
2022-12-18T16:29:44.317Z,15.32
2022-12-18T16:32:15.148Z,16.75
2022-12-18T16:34:42.924Z,16.85
2022-12-18T16:37:10.973Z,16.15
2022-12-18T16:39:38.412Z,15.63
2022-12-18T16:42:09.785Z,15.00
2022-12-18T16:44:36.830Z,15.07
2022-12-18T16:47:04.309Z,15.13
2022-12-18T16:49:31.344Z,13.63
2022-12-18T16:51:58.197Z,13.60
2022-12-18T16:54:25.035Z,13.95
2022-12-18T16:56:52.156Z,13.95
2022-12-18T16:59:19.244Z,13.27
2022-12-18T17:01:47.227Z,13.45
2022-12-18T17:04:14.453Z,13.32
2022-12-18T17:06:43.957Z,13.93
2022-12-18T17:09:16.215Z,13.70
2022-12-18T17:11:43.179Z,15.43
2022-12-18T17:14:14.291Z,13.98
2022-12-18T17:16:40.720Z,13.27
2022-12-18T17:19:12.106Z,13.98
2022-12-18T17:21:42.707Z,13.20
2022-12-18T17:24:10.237Z,13.25
2022-12-18T17:26:37.060Z,14.20
2022-12-18T17:29:03.594Z,13.55
2022-12-18T17:31:30.860Z,15.27
2022-12-18T17:33:58.806Z,13.82
2022-12-18T17:36:28.452Z,13.75
2022-12-18T17:38:59.209Z,14.63
2022-12-18T17:41:26.551Z,12.85
2022-12-18T17:44:01.344Z,12.75
2022-12-18T17:46:29.096Z,14.13
2022-12-18T17:48:55.858Z,13.35
2022-12-18T17:51:22.351Z,14.52
2022-12-18T17:53:49.407Z,12.32
2022-12-18T17:56:17.798Z,15.00
2022-12-18T17:58:45.354Z,13.73
2022-12-18T18:01:14.807Z,14.48
2022-12-18T18:03:43.567Z,14.43
2022-12-18T18:06:10.562Z,14.05
2022-12-18T18:08:37.612Z,15.52
2022-12-18T18:11:24.887Z,15.18
2022-12-18T18:14:04.509Z,15.27
2022-12-18T18:16:34.242Z,14.90
2022-12-18T18:19:03.612Z,15.25
2022-12-18T18:21:31.053Z,13.55
2022-12-18T18:24:04.603Z,14.77
2022-12-18T18:26:32.575Z,15.00
2022-12-18T18:29:00.584Z,14.00
2022-12-18T18:31:30.684Z,16.50
2022-12-18T18:33:57.557Z,14.90
2022-12-18T18:36:24.697Z,14.43
2022-12-18T18:38:51.693Z,14.05
2022-12-18T18:41:19.601Z,14.88
2022-12-18T18:43:46.354Z,14.18
2022-12-18T18:46:14.762Z,13.43
2022-12-18T18:48:42.995Z,13.25
2022-12-18T18:51:20.675Z,14.07
2022-12-18T18:53:50.159Z,15.13
2022-12-18T18:59:05.461Z,14.25
2022-12-18T19:01:32.317Z,14.35
2022-12-18T19:03:58.949Z,13.95
2022-12-18T19:06:27.708Z,14.02
2022-12-18T19:08:55.747Z,15.20
2022-12-18T19:11:42.299Z,13.80
2022-12-18T19:14:11.617Z,15.68
2022-12-18T19:16:38.367Z,15.45
2022-12-18T19:19:05.443Z,12.90
2022-12-18T19:21:33.397Z,13.23
2022-12-18T19:24:02.404Z,12.02
2022-12-18T19:26:29.076Z,12.65
2022-12-18T19:29:02.073Z,13.50
2022-12-18T19:31:34.780Z,12.50
2022-12-18T19:34:04.882Z,13.73
2022-12-18T19:36:36.875Z,13.63
2022-12-18T19:39:10.644Z,14.18
2022-12-18T19:41:37.365Z,13.27
2022-12-18T19:44:07.734Z,14.05
2022-12-18T19:46:35.800Z,14.35
2022-12-18T19:49:03.035Z,13.60
2022-12-18T19:51:31.400Z,14.85
2022-12-18T19:54:01.469Z,16.20
2022-12-18T19:56:32.281Z,14.48
2022-12-18T19:58:59.536Z,15.40
2022-12-18T20:01:27.716Z,15.20
2022-12-18T20:03:56.149Z,14.48
2022-12-18T20:06:33.753Z,14.63
2022-12-18T20:09:04.431Z,15.88
2022-12-18T20:11:32.701Z,14.13
2022-12-18T20:13:59.399Z,15.55
2022-12-18T20:16:26.017Z,15.30
2022-12-18T20:18:53.393Z,15.75
2022-12-18T20:21:20.646Z,16.35
2022-12-18T20:23:47.382Z,15.65
2022-12-18T20:26:14.037Z,15.55
2022-12-18T20:28:40.873Z,17.38
2022-12-18T20:31:10.492Z,16.55
2022-12-18T20:33:41.318Z,17.05
2022-12-18T20:36:12.382Z,18.75
2022-12-18T20:38:39.581Z,18.58
2022-12-18T20:41:12.693Z,18.30
2022-12-18T20:43:40.009Z,20.77
2022-12-18T20:46:10.572Z,17.55
2022-12-18T20:48:37.344Z,20.92
2022-12-18T20:51:07.129Z,18.17
2022-12-18T20:53:34.481Z,16.77
2022-12-18T20:56:05.730Z,20.20
2022-12-18T20:58:32.374Z,14.30
2022-12-18T21:01:07.117Z,15.85
2022-12-18T21:03:33.917Z,15.73
2022-12-18T21:06:00.525Z,16.65
2022-12-18T21:08:27.108Z,14.90
2022-12-18T21:10:54.289Z,13.77
2022-12-18T21:13:22.537Z,14.18
2022-12-18T21:15:49.181Z,14.93
2022-12-18T21:18:15.816Z,14.23
2022-12-18T21:20:42.654Z,14.95
2022-12-18T21:23:15.969Z,15.80
2022-12-18T21:25:43.714Z,14.60
2022-12-18T21:28:12.313Z,15.35
2022-12-18T21:30:38.956Z,15.50
2022-12-18T21:33:05.595Z,15.77
2022-12-18T21:35:32.533Z,14.52
2022-12-18T21:37:59.164Z,14.77
2022-12-18T21:40:25.725Z,16.50
2022-12-18T21:43:11.284Z,14.98
2022-12-18T21:45:44.490Z,13.32
2022-12-18T21:48:12.242Z,12.82
2022-12-18T21:50:38.879Z,14.75
2022-12-18T21:53:05.548Z,14.02
2022-12-18T21:55:32.252Z,13.57
2022-12-18T21:57:58.904Z,13.77
2022-12-18T22:00:25.567Z,14.35
2022-12-18T22:03:13.352Z,14.27
2022-12-18T22:05:38.788Z,13.85
2022-12-18T22:08:06.896Z,12.52
2022-12-18T22:10:34.089Z,14.60
2022-12-18T22:13:00.932Z,14.65
2022-12-18T22:15:27.726Z,14.60
2022-12-18T22:17:59.819Z,14.38
2022-12-18T22:20:26.927Z,14.00
2022-12-18T22:22:53.632Z,14.10
2022-12-18T22:25:20.274Z,13.80
2022-12-18T22:28:07.002Z,13.18
2022-12-18T22:30:33.815Z,12.43
2022-12-18T22:33:00.458Z,14.38
2022-12-18T22:35:27.080Z,15.55
2022-12-18T22:37:53.729Z,13.55
2022-12-18T22:40:25.929Z,13.63
2022-12-18T22:42:56.432Z,14.52
2022-12-18T22:45:24.722Z,11.95
2022-12-18T22:47:51.551Z,13.35
2022-12-18T22:50:18.480Z,14.38
2022-12-18T22:52:45.235Z,13.35
2022-12-18T22:55:12.063Z,14.73
2022-12-18T22:57:41.155Z,14.23
2022-12-18T23:00:14.880Z,12.73
2022-12-18T23:02:43.552Z,14.82
2022-12-18T23:05:10.317Z,14.45
2022-12-18T23:07:36.826Z,14.35
2022-12-18T23:10:03.783Z,14.20
2022-12-18T23:12:30.421Z,14.88
2022-12-18T23:14:57.187Z,14.30
2022-12-18T23:17:23.798Z,14.77
2022-12-18T23:19:50.347Z,14.30
2022-12-18T23:22:17.790Z,14.02
2022-12-18T23:24:44.430Z,15.07
2022-12-18T23:27:11.552Z,14.55
2022-12-18T23:29:39.865Z,12.95
2022-12-18T23:32:06.880Z,13.77
2022-12-18T23:34:33.366Z,13.45
2022-12-18T23:37:00.971Z,12.45
2022-12-18T23:39:28.923Z,14.00
2022-12-18T23:41:57.759Z,12.43
2022-12-18T23:44:24.508Z,14.07
2022-12-18T23:46:51.059Z,14.63
2022-12-18T23:49:17.548Z,13.95
2022-12-18T23:51:44.001Z,13.05
2022-12-18T23:54:10.837Z,14.38
2022-12-18T23:56:37.647Z,12.98
2022-12-18T23:59:04.113Z,12.98
